KFDR/FDR METAR and TAF weather

Enter ICAO airport designator
Station Type Date Time Source
KFDR METAR 2019/08/19 22:53 UTC NOAA

KFDR 192253Z AUTO 14015KT 10SM CLR 41/18 A2987 RMK AO2 SLP091 T04060178


Station Type Date Time Source
KFDR Decoded METAR 2019/08/19 22:53 UTC NOAA

FREDERICK MUNICIPAL AIRPORT, OK, United States (KFDR) 34-21N 98-59W 377M
Aug 19, 2019 - 06:53 PM EDT / 2019.08.19 2253 UTC
Wind: from the SE (140 degrees) at 17 MPH (15 KT):0
Visibility: 10 mile(s):0
Sky conditions: clear
Temperature: 105.1 F (40.6 C)
Heat index: 108.5 F (42.5 C):1
Dew Point: 64.0 F (17.8 C)
Relative Humidity: 26%
Pressure (altimeter): 29.87 in. Hg (1011 hPa)
ob: KFDR 192253Z AUTO 14015KT 10SM CLR 41/18 A2987 RMK AO2 SLP091 T04060178
cycle: 23

Station Type Date Time Source
KFDR TAF UTC NOAA

Error!

Example: see airport list